createdAt,value
2022-10-13T00:00:51.992Z,95381.84
2022-10-13T00:02:53.844Z,95379.13
2022-10-13T00:04:55.792Z,95378.09
2022-10-13T00:06:57.463Z,95382.75
2022-10-13T00:08:59.485Z,95377.81
2022-10-13T00:11:01.424Z,95376.16
2022-10-13T00:13:03.106Z,95382.53
2022-10-13T00:15:07.211Z,95379.53
2022-10-13T00:17:09.173Z,95378.56
2022-10-13T00:19:14.980Z,95373.44
2022-10-13T00:21:20.233Z,95377.88
2022-10-13T00:23:22.125Z,95370.97
2022-10-13T00:25:23.725Z,95365.44
2022-10-13T00:27:25.368Z,95364.03
2022-10-13T00:29:27.039Z,95366.09
2022-10-13T00:31:30.817Z,95370.78
2022-10-13T00:33:32.486Z,95360.59
2022-10-13T00:35:34.531Z,95357.53
2022-10-13T00:37:36.211Z,95359.97
2022-10-13T00:39:37.832Z,95358.72
2022-10-13T00:41:39.608Z,95353.31
2022-10-13T00:43:52.305Z,95356.09
2022-10-13T00:45:54.425Z,95348.88
2022-10-13T00:48:01.180Z,95343.34
2022-10-13T00:50:04.825Z,95344.03
2022-10-13T00:52:06.625Z,95351.91
2022-10-13T00:54:10.390Z,95352.88
2022-10-13T00:56:12.135Z,95348.59
2022-10-13T00:58:19.675Z,95350.56
2022-10-13T01:00:25.129Z,95341.31
2022-10-13T01:02:30.877Z,95348.66
2022-10-13T01:04:35.059Z,95346.34
2022-10-13T01:06:36.772Z,95349.47
2022-10-13T01:08:38.541Z,95349.88
2022-10-13T01:11:00.765Z,95346.25
2022-10-13T01:13:35.145Z,95348.59
2022-10-13T01:15:38.724Z,95347.31
2022-10-13T01:17:58.572Z,95343.34
2022-10-13T01:20:18.467Z,95345.31
2022-10-13T01:22:44.745Z,95348.75
2022-10-13T01:25:10.712Z,95354.44
2022-10-13T01:27:18.733Z,95347.41
2022-10-13T01:29:51.311Z,95348.22
2022-10-13T01:32:16.249Z,95353.47
2022-10-13T01:34:29.746Z,95345.59
2022-10-13T01:36:35.678Z,95355.13
2022-10-13T01:38:45.704Z,95350.56
2022-10-13T01:41:05.800Z,95352.72
2022-10-13T01:43:25.641Z,95354.66
2022-10-13T01:45:32.273Z,95345.59
2022-10-13T01:47:34.521Z,95347.53
2022-10-13T01:49:36.351Z,95349.47
2022-10-13T01:51:38.943Z,95346.34
2022-10-13T01:53:41.466Z,95349.78
2022-10-13T01:55:57.639Z,95338.31
2022-10-13T01:57:59.315Z,95343.88
2022-10-13T02:00:18.914Z,95338.25
2022-10-13T02:02:28.964Z,95349.03
2022-10-13T02:04:54.056Z,95336.59
2022-10-13T02:07:00.409Z,95334.66
2022-10-13T02:09:06.493Z,95342.97
2022-10-13T02:11:16.791Z,95335.00
2022-10-13T02:13:22.256Z,95333.97
2022-10-13T02:15:28.848Z,95341.16
2022-10-13T02:17:30.942Z,95335.47
2022-10-13T02:19:37.457Z,95336.66
2022-10-13T02:21:39.493Z,95340.84
2022-10-13T02:23:43.086Z,95337.84
2022-10-13T02:25:45.269Z,95337.72
2022-10-13T02:27:46.879Z,95333.72
2022-10-13T02:29:50.810Z,95328.34
2022-10-13T02:31:54.984Z,95325.88
2022-10-13T02:33:56.546Z,95320.94
2022-10-13T02:35:58.190Z,95322.69
2022-10-13T02:38:00.378Z,95324.28
2022-10-13T02:40:01.966Z,95323.59
2022-10-13T02:42:03.880Z,95314.41
2022-10-13T02:44:06.495Z,95319.88
2022-10-13T02:46:08.094Z,95316.00
2022-10-13T02:48:09.778Z,95314.44
2022-10-13T02:50:11.548Z,95312.34
2022-10-13T02:52:13.196Z,95313.69
2022-10-13T02:54:14.815Z,95302.63
2022-10-13T02:56:16.405Z,95304.25
2022-10-13T02:58:18.288Z,95312.66
2022-10-13T03:00:20.784Z,95302.84
2022-10-13T03:02:23.088Z,95305.16
2022-10-13T03:04:24.918Z,95305.47
2022-10-13T03:06:26.636Z,95301.03
2022-10-13T03:08:28.404Z,95306.84
2022-10-13T03:10:31.996Z,95301.28
2022-10-13T03:12:33.970Z,95305.25
2022-10-13T03:14:35.657Z,95298.38
2022-10-13T03:16:37.329Z,95314.09
2022-10-13T03:18:39.000Z,95306.38
2022-10-13T03:20:40.774Z,95309.72
2022-10-13T03:22:44.911Z,95315.75
2022-10-13T03:24:50.374Z,95315.66
2022-10-13T03:26:52.241Z,95316.56
2022-10-13T03:28:53.898Z,95318.16
2022-10-13T03:31:07.190Z,95330.53
2022-10-13T03:33:08.776Z,95322.19
2022-10-13T03:35:10.619Z,95328.13
2022-10-13T03:37:12.204Z,95326.75
2022-10-13T03:39:14.194Z,95324.38
2022-10-13T03:41:17.995Z,95329.22
2022-10-13T03:43:19.473Z,95321.13
2022-10-13T03:45:21.239Z,95328.69
2022-10-13T03:47:23.120Z,95325.94
2022-10-13T03:49:24.730Z,95326.31
2022-10-13T03:51:26.501Z,95322.06
2022-10-13T03:53:28.148Z,95318.56
2022-10-13T03:55:29.781Z,95316.19
2022-10-13T03:57:31.647Z,95318.50
2022-10-13T03:59:36.768Z,95315.31
2022-10-13T04:01:39.217Z,95313.13
2022-10-13T04:03:41.032Z,95306.53
2022-10-13T04:05:43.247Z,95311.91
2022-10-13T04:07:44.844Z,95309.81
2022-10-13T04:09:46.654Z,95315.63
2022-10-13T04:11:51.359Z,95307.31
2022-10-13T04:13:53.304Z,95309.19
2022-10-13T04:15:55.281Z,95309.34
2022-10-13T04:17:56.961Z,95304.78
2022-10-13T04:19:58.543Z,95301.06
2022-10-13T04:22:00.137Z,95306.00
2022-10-13T04:24:02.285Z,95302.09
2022-10-13T04:26:05.392Z,95302.09
2022-10-13T04:28:07.561Z,95301.53
2022-10-13T04:30:12.465Z,95309.59
2022-10-13T04:32:15.123Z,95304.91
2022-10-13T04:34:17.024Z,95303.88
2022-10-13T04:36:18.978Z,95301.97
2022-10-13T04:38:20.565Z,95305.59
2022-10-13T04:40:22.191Z,95304.13
2022-10-13T04:42:23.981Z,95303.81
2022-10-13T04:44:25.619Z,95308.28
2022-10-13T04:46:27.985Z,95302.78
2022-10-13T04:48:29.657Z,95303.56
2022-10-13T04:50:31.280Z,95295.28
2022-10-13T04:52:34.729Z,95309.47
2022-10-13T04:54:36.625Z,95307.72
2022-10-13T04:56:38.231Z,95309.72
2022-10-13T04:58:42.247Z,95315.38
2022-10-13T05:00:46.716Z,95313.13
2022-10-13T05:02:48.434Z,95313.28
2022-10-13T05:04:50.020Z,95316.06
2022-10-13T05:07:16.613Z,95315.00
2022-10-13T05:09:16.482Z,95318.03
2022-10-13T05:11:20.566Z,95316.91
2022-10-13T05:13:22.220Z,95314.97
2022-10-13T05:15:24.080Z,95324.34
2022-10-13T05:17:25.665Z,95328.88
2022-10-13T05:19:27.334Z,95329.72
2022-10-13T05:21:29.894Z,95330.69
2022-10-13T05:23:31.489Z,95330.56
2022-10-13T05:25:35.368Z,95338.69
2022-10-13T05:27:36.899Z,95334.00
2022-10-13T05:29:39.017Z,95344.00
2022-10-13T05:31:41.206Z,95336.44
2022-10-13T05:33:43.092Z,95333.41
2022-10-13T05:35:44.652Z,95343.69
2022-10-13T05:37:46.404Z,95346.00
2022-10-13T05:39:48.917Z,95345.00
2022-10-13T05:41:50.648Z,95352.97
2022-10-13T05:43:57.504Z,95354.72
2022-10-13T05:46:00.055Z,95361.88
2022-10-13T05:48:01.736Z,95363.09
2022-10-13T05:50:03.633Z,95364.19
2022-10-13T05:52:08.486Z,95359.00
2022-10-13T05:54:30.215Z,95361.19
2022-10-13T05:56:36.383Z,95364.34
2022-10-13T05:58:41.953Z,95373.47
2022-10-13T06:00:44.275Z,95377.56
2022-10-13T06:03:10.589Z,95383.19
2022-10-13T06:05:15.324Z,95372.91
2022-10-13T06:07:17.379Z,95366.84
2022-10-13T06:09:19.484Z,95371.66
2022-10-13T06:11:21.130Z,95363.97
2022-10-13T06:13:22.781Z,95369.84
2022-10-13T06:15:27.958Z,95367.53
2022-10-13T06:17:29.854Z,95370.53
2022-10-13T06:19:31.642Z,95373.66
2022-10-13T06:21:35.385Z,95369.31
2022-10-13T06:23:37.012Z,95369.91
2022-10-13T06:25:38.830Z,95371.94
2022-10-13T06:27:40.715Z,95362.59
2022-10-13T06:29:42.294Z,95368.16
2022-10-13T06:31:43.906Z,95362.84
2022-10-13T06:33:45.564Z,95367.41
2022-10-13T06:35:47.148Z,95365.09
2022-10-13T06:37:48.770Z,95358.34
2022-10-13T06:39:50.567Z,95356.59
2022-10-13T06:41:52.756Z,95359.19
2022-10-13T06:43:54.406Z,95353.06
2022-10-13T06:46:00.488Z,95353.81
2022-10-13T06:48:02.085Z,95347.78
2022-10-13T06:50:03.917Z,95349.50
2022-10-13T06:52:05.718Z,95349.84
2022-10-13T06:54:07.368Z,95347.72
2022-10-13T06:56:09.352Z,95347.22
2022-10-13T06:58:11.302Z,95353.53
2022-10-13T07:00:13.105Z,95358.59
2022-10-13T07:02:14.701Z,95351.44
2022-10-13T07:04:16.363Z,95351.25
2022-10-13T07:06:18.476Z,95345.59
2022-10-13T07:08:20.845Z,95345.06
2022-10-13T07:10:22.626Z,95347.47
2022-10-13T07:12:24.375Z,95343.03
2022-10-13T07:14:26.054Z,95341.81
2022-10-13T07:16:27.962Z,95342.25
2022-10-13T07:18:29.638Z,95336.84
2022-10-13T07:20:31.299Z,95339.09
2022-10-13T07:22:33.140Z,95343.34
2022-10-13T07:24:34.724Z,95342.97
2022-10-13T07:26:36.732Z,95341.94
2022-10-13T07:28:39.193Z,95353.59
2022-10-13T07:30:41.004Z,95358.19
2022-10-13T07:32:42.735Z,95349.44
2022-10-13T07:34:44.418Z,95351.31
2022-10-13T07:36:46.133Z,95349.88
2022-10-13T07:38:47.719Z,95348.69
2022-10-13T07:40:49.396Z,95349.50
2022-10-13T07:42:51.030Z,95345.34
2022-10-13T07:44:52.661Z,95349.91
2022-10-13T07:46:54.317Z,95346.47
2022-10-13T07:48:56.197Z,95344.03
2022-10-13T07:50:58.327Z,95342.72
2022-10-13T07:53:00.093Z,95344.84
2022-10-13T07:55:01.753Z,95348.72
2022-10-13T07:57:03.607Z,95342.78
2022-10-13T07:59:05.433Z,95348.63
2022-10-13T08:01:08.081Z,95338.47
2022-10-13T08:03:09.757Z,95340.22
2022-10-13T08:05:11.359Z,95342.91
2022-10-13T08:07:12.953Z,95339.13
2022-10-13T08:09:14.684Z,95339.06
2022-10-13T08:11:17.659Z,95340.91
2022-10-13T08:13:19.454Z,95339.38
2022-10-13T08:15:21.139Z,95338.81
2022-10-13T08:17:22.949Z,95335.25
2022-10-13T08:19:26.588Z,95329.75
2022-10-13T08:23:51.316Z,95325.78
2022-10-13T08:25:53.147Z,95333.00
2022-10-13T08:28:00.260Z,95331.03
2022-10-13T08:30:02.299Z,95334.31
2022-10-13T08:32:04.107Z,95325.06
2022-10-13T08:34:05.740Z,95325.56
2022-10-13T08:36:08.377Z,95323.28
2022-10-13T08:38:10.161Z,95327.22
2022-10-13T08:40:17.552Z,95322.94
2022-10-13T08:42:22.247Z,95322.59
2022-10-13T08:46:56.578Z,95320.13
2022-10-13T08:49:00.265Z,95316.34
2022-10-13T08:51:04.080Z,95306.44
2022-10-13T08:53:07.576Z,95308.97
2022-10-13T08:55:18.834Z,95295.03
2022-10-13T08:57:20.866Z,95299.22
2022-10-13T08:59:22.790Z,95295.63
2022-10-13T09:01:28.899Z,95296.53
2022-10-13T09:03:30.602Z,95292.47
2022-10-13T09:05:39.380Z,95292.88
2022-10-13T09:07:41.485Z,95296.09
2022-10-13T09:09:43.744Z,95290.88
2022-10-13T09:11:47.519Z,95285.94
2022-10-13T09:13:49.428Z,95293.88
2022-10-13T09:15:51.058Z,95286.06
2022-10-13T09:18:09.597Z,95294.38
2022-10-13T09:20:23.549Z,95280.91
2022-10-13T09:22:35.901Z,95280.84
2022-10-13T09:24:37.492Z,95275.25
2022-10-13T09:26:39.600Z,95266.59
2022-10-13T09:28:42.804Z,95265.25
2022-10-13T09:30:48.923Z,95257.56
2022-10-13T09:32:50.597Z,95253.47
2022-10-13T09:34:53.019Z,95259.34
2022-10-13T09:36:58.190Z,95257.34
2022-10-13T09:39:17.143Z,95252.94
2022-10-13T09:41:22.364Z,95263.88
2022-10-13T09:43:33.343Z,95252.63
2022-10-13T09:45:35.006Z,95248.53
2022-10-13T09:47:36.866Z,95258.28
2022-10-13T09:49:44.182Z,95245.97
2022-10-13T09:51:45.980Z,95255.06
2022-10-13T09:53:47.858Z,95253.19
2022-10-13T09:55:49.959Z,95250.28
2022-10-13T09:57:52.812Z,95248.34
2022-10-13T10:00:04.634Z,95247.81
2022-10-13T10:02:31.046Z,95235.31
2022-10-13T10:04:36.594Z,95239.84
2022-10-13T10:06:39.210Z,95236.81
2022-10-13T10:09:02.865Z,95227.50
2022-10-13T10:11:08.696Z,95225.88
2022-10-13T10:13:14.783Z,95220.41
2022-10-13T10:15:25.265Z,95219.19
2022-10-13T10:17:38.056Z,95218.41
2022-10-13T10:19:46.957Z,95216.03
2022-10-13T10:22:04.086Z,95208.75
2022-10-13T10:24:15.637Z,95207.56
2022-10-13T10:26:32.937Z,95211.69
2022-10-13T10:28:49.832Z,95209.50
2022-10-13T10:31:00.322Z,95208.06
2022-10-13T10:33:21.306Z,95203.56
2022-10-13T10:35:44.562Z,95202.31
2022-10-13T10:38:07.252Z,95197.41
2022-10-13T10:40:30.943Z,95183.72
2022-10-13T10:42:53.911Z,95188.41
2022-10-13T10:44:56.240Z,95184.31
2022-10-13T10:47:02.974Z,95184.09
2022-10-13T10:49:20.378Z,95173.47
2022-10-13T10:51:31.450Z,95168.56
2022-10-13T10:53:45.650Z,95174.22
2022-10-13T10:55:57.286Z,95172.38
2022-10-13T10:58:05.281Z,95163.41
2022-10-13T11:00:14.430Z,95153.84
2022-10-13T11:02:34.191Z,95158.16
2022-10-13T11:04:43.073Z,95154.66
2022-10-13T11:06:44.754Z,95148.97
2022-10-13T11:09:05.348Z,95141.81
2022-10-13T11:11:36.437Z,95139.16
2022-10-13T11:14:07.305Z,95141.19
2022-10-13T11:16:38.390Z,95141.19
2022-10-13T11:19:06.652Z,95142.00
2022-10-13T11:21:08.366Z,95134.91
2022-10-13T11:23:12.837Z,95135.53
2022-10-13T11:25:40.231Z,95128.19
2022-10-13T11:27:42.868Z,95123.88
2022-10-13T11:29:44.633Z,95124.50
2022-10-13T11:31:54.610Z,95117.38
2022-10-13T11:34:01.669Z,95108.56
2022-10-13T11:36:31.448Z,95108.16
2022-10-13T11:38:36.409Z,95104.09
2022-10-13T11:41:02.524Z,95104.69
2022-10-13T11:43:13.053Z,95103.28
2022-10-13T11:45:25.686Z,95101.03
2022-10-13T11:47:42.569Z,95097.13
2022-10-13T11:50:23.024Z,95093.84
2022-10-13T11:52:48.006Z,95097.94
2022-10-13T11:54:57.664Z,95087.31
2022-10-13T11:56:59.235Z,95084.66
2022-10-13T11:59:01.064Z,95086.72
2022-10-13T12:01:11.185Z,95079.94
2022-10-13T12:03:21.496Z,95081.19
2022-10-13T12:05:26.553Z,95083.22
2022-10-13T12:07:32.914Z,95079.75
2022-10-13T12:09:36.916Z,95071.13
2022-10-13T12:11:39.093Z,95079.56
2022-10-13T12:13:46.418Z,95073.81
2022-10-13T12:15:48.103Z,95077.03
2022-10-13T12:17:49.821Z,95074.78
2022-10-13T12:19:54.833Z,95069.31
2022-10-13T12:22:00.040Z,95068.50
2022-10-13T12:24:13.602Z,95077.28
2022-10-13T12:26:20.438Z,95070.53
2022-10-13T12:28:22.519Z,95073.81
2022-10-13T12:30:28.071Z,95076.22
2022-10-13T12:32:31.684Z,95076.03
2022-10-13T12:34:35.163Z,95076.88
2022-10-13T12:36:36.797Z,95069.94
2022-10-13T12:38:38.965Z,95065.00
2022-10-13T12:40:40.874Z,95066.47
2022-10-13T12:42:42.939Z,95056.41
2022-10-13T12:44:44.940Z,95056.63
2022-10-13T12:46:56.315Z,95042.53
2022-10-13T12:49:05.327Z,95043.56
2022-10-13T12:51:17.216Z,95041.13
2022-10-13T12:53:29.029Z,95043.34
2022-10-13T12:55:31.471Z,95041.91
2022-10-13T12:57:37.534Z,95050.72
2022-10-13T12:59:41.999Z,95040.06
2022-10-13T13:01:44.127Z,95042.09
2022-10-13T13:03:45.751Z,95041.91
2022-10-13T13:05:52.326Z,95043.53
2022-10-13T13:07:55.865Z,95030.63
2022-10-13T13:10:13.876Z,95030.00
2022-10-13T13:12:23.514Z,95026.75
2022-10-13T13:14:38.548Z,95021.84
2022-10-13T13:16:40.169Z,95031.66
2022-10-13T13:18:43.941Z,95024.72
2022-10-13T13:20:45.545Z,95028.41
2022-10-13T13:22:47.417Z,95034.16
2022-10-13T13:24:52.198Z,95032.94
2022-10-13T13:26:53.796Z,95029.66
2022-10-13T13:28:56.315Z,95020.28
2022-10-13T13:30:58.910Z,95024.78
2022-10-13T13:33:00.541Z,95021.88
2022-10-13T13:35:02.168Z,95021.47
2022-10-13T13:37:04.051Z,95031.69
2022-10-13T13:39:06.780Z,95024.16
2022-10-13T13:41:10.654Z,95020.88
2022-10-13T13:43:12.486Z,95023.13
2022-10-13T13:45:15.246Z,95017.00
2022-10-13T13:47:22.423Z,95019.84
2022-10-13T13:49:24.385Z,95009.66
2022-10-13T13:51:25.997Z,95010.03
2022-10-13T13:53:27.765Z,95010.47
2022-10-13T13:55:30.218Z,95016.19
2022-10-13T13:57:31.782Z,95011.28
2022-10-13T13:59:33.603Z,95013.53
2022-10-13T14:01:35.373Z,95014.78
2022-10-13T14:03:37.054Z,95011.69
2022-10-13T14:05:40.079Z,95011.31
2022-10-13T14:07:42.243Z,95013.53
2022-10-13T14:09:43.789Z,95012.50
2022-10-13T14:11:45.434Z,95010.47
2022-10-13T14:13:47.265Z,95011.50
2022-10-13T14:15:59.813Z,95012.75
2022-10-13T14:18:01.470Z,95002.94
2022-10-13T14:20:03.229Z,95012.31
2022-10-13T14:22:09.332Z,95007.63
2022-10-13T14:24:11.245Z,95013.31
2022-10-13T14:26:13.858Z,94998.81
2022-10-13T14:28:18.244Z,95007.00
2022-10-13T14:30:20.305Z,95002.66
2022-10-13T14:32:22.595Z,95003.91
2022-10-13T14:34:24.714Z,95010.44
2022-10-13T14:36:26.321Z,95000.19
2022-10-13T14:38:28.336Z,95005.72
2022-10-13T14:40:29.944Z,95006.94
2022-10-13T14:42:31.585Z,95000.00
2022-10-13T14:44:33.161Z,95006.31
2022-10-13T14:46:34.891Z,95003.47
2022-10-13T14:48:37.471Z,95010.38
2022-10-13T14:50:39.050Z,95008.53
2022-10-13T14:52:40.729Z,95004.66
2022-10-13T14:54:44.861Z,94996.69
2022-10-13T14:56:46.795Z,94993.19
2022-10-13T14:58:50.043Z,94998.28
2022-10-13T15:00:53.581Z,95002.16
2022-10-13T15:02:55.193Z,95002.34
2022-10-13T15:04:57.951Z,95005.59
2022-10-13T15:06:59.634Z,95012.53
2022-10-13T15:09:01.426Z,95005.91
2022-10-13T15:11:04.197Z,95013.78
2022-10-13T15:13:05.775Z,95012.34
2022-10-13T15:15:07.772Z,95021.66
2022-10-13T15:17:09.582Z,95010.13
2022-10-13T15:19:11.413Z,95003.16
2022-10-13T15:21:13.142Z,94992.31
2022-10-13T15:23:15.929Z,95002.72
2022-10-13T15:25:17.636Z,94993.69
2022-10-13T15:27:19.230Z,95007.56
2022-10-13T15:29:21.340Z,95004.56
2022-10-13T15:31:23.621Z,95003.28
2022-10-13T15:33:25.310Z,95009.59
2022-10-13T15:35:31.329Z,95011.59
2022-10-13T15:37:32.921Z,95007.06
2022-10-13T15:39:34.974Z,95010.09
2022-10-13T15:41:36.709Z,95003.38
2022-10-13T15:43:39.054Z,94997.69
2022-10-13T15:45:40.917Z,95002.41
2022-10-13T15:47:42.587Z,94998.75
2022-10-13T15:49:44.194Z,95006.13
2022-10-13T15:51:46.307Z,95008.38
2022-10-13T15:53:48.457Z,95012.50
2022-10-13T15:55:50.177Z,95006.75
2022-10-13T15:57:51.918Z,95016.75
2022-10-13T15:59:53.556Z,95024.34
2022-10-13T16:01:55.136Z,95022.69
2022-10-13T16:03:56.919Z,95024.34
2022-10-13T16:05:58.698Z,95023.94
2022-10-13T16:08:00.253Z,95025.19
2022-10-13T16:10:02.100Z,95018.25
2022-10-13T16:12:03.790Z,95024.13
2022-10-13T16:14:05.408Z,95025.78
2022-10-13T16:16:07.928Z,95028.84
2022-10-13T16:18:09.568Z,95023.53
2022-10-13T16:20:11.761Z,95018.03
2022-10-13T16:22:13.670Z,95023.13
2022-10-13T16:24:15.342Z,95027.22
2022-10-13T16:26:17.812Z,95032.34
2022-10-13T16:28:19.568Z,95030.69
2022-10-13T16:30:21.272Z,95031.25
2022-10-13T16:32:23.124Z,95023.72
2022-10-13T16:34:24.971Z,95026.78
2022-10-13T16:36:26.615Z,95027.16
2022-10-13T16:38:28.446Z,95037.75
2022-10-13T16:40:30.759Z,95032.66
2022-10-13T16:42:32.584Z,95037.94
2022-10-13T16:44:34.249Z,95035.28
2022-10-13T16:46:36.190Z,95032.00
2022-10-13T16:48:37.894Z,95032.81
2022-10-13T16:50:39.484Z,95032.66
2022-10-13T16:52:41.048Z,95031.66
2022-10-13T16:54:42.808Z,95033.66
2022-10-13T16:56:44.513Z,95031.19
2022-10-13T16:58:46.143Z,95032.81
2022-10-13T17:00:48.042Z,95032.81
2022-10-13T17:02:49.696Z,95030.81
2022-10-13T17:04:51.346Z,95027.97
2022-10-13T17:06:53.023Z,95027.16
2022-10-13T17:08:58.707Z,95029.00
2022-10-13T17:11:00.826Z,95023.25
2022-10-13T17:13:02.473Z,95020.63
2022-10-13T17:15:04.558Z,95020.16
2022-10-13T17:17:06.145Z,95021.56
2022-10-13T17:19:08.127Z,95024.41
2022-10-13T17:21:13.584Z,95024.59
2022-10-13T17:23:17.003Z,95017.47
2022-10-13T17:25:18.659Z,95021.16
2022-10-13T17:27:20.566Z,95018.84
2022-10-13T17:29:22.367Z,95021.91
2022-10-13T17:31:24.521Z,95016.16
2022-10-13T17:33:27.664Z,95017.75
2022-10-13T17:35:31.315Z,95019.91
2022-10-13T17:37:32.784Z,95018.03
2022-10-13T17:39:34.412Z,95016.59
2022-10-13T17:41:36.289Z,95017.78
2022-10-13T17:43:39.242Z,95016.53
2022-10-13T17:45:40.926Z,95014.88
2022-10-13T17:47:49.619Z,95015.19
2022-10-13T17:49:51.283Z,95019.22
2022-10-13T17:51:54.317Z,95019.41
2022-10-13T17:53:58.726Z,95016.50
2022-10-13T17:56:07.932Z,95020.53
2022-10-13T17:58:09.792Z,95018.88
2022-10-13T18:00:12.171Z,95014.44
2022-10-13T18:02:13.881Z,95014.44
2022-10-13T18:04:17.906Z,95011.31
2022-10-13T18:06:20.119Z,95008.06
2022-10-13T18:08:21.704Z,95017.81
2022-10-13T18:10:23.344Z,95024.31
2022-10-13T18:12:25.130Z,95020.19
2022-10-13T18:14:26.792Z,95022.41
2022-10-13T18:16:28.472Z,95025.38
2022-10-13T18:18:30.180Z,95024.75
2022-10-13T18:20:32.359Z,95018.84
2022-10-13T18:22:34.312Z,95019.84
2022-10-13T18:24:35.956Z,95027.97
2022-10-13T18:26:37.863Z,95024.84
2022-10-13T18:28:40.543Z,95025.88
2022-10-13T18:30:42.400Z,95023.88
2022-10-13T18:32:44.046Z,95033.41
2022-10-13T18:34:45.645Z,95028.97
2022-10-13T18:36:50.541Z,95029.78
2022-10-13T18:38:56.785Z,95034.91
2022-10-13T18:40:59.514Z,95032.06
2022-10-13T18:43:01.218Z,95038.19
2022-10-13T18:45:03.099Z,95031.41
2022-10-13T18:47:04.881Z,95032.59
2022-10-13T18:49:08.276Z,95029.34
2022-10-13T18:51:12.321Z,95027.06
2022-10-13T18:53:14.165Z,95028.69
2022-10-13T18:55:15.859Z,95026.91
2022-10-13T18:57:17.435Z,95028.91
2022-10-13T18:59:19.137Z,95033.66
2022-10-13T19:01:23.105Z,95034.84
2022-10-13T19:03:24.759Z,95031.72
2022-10-13T19:05:26.434Z,95029.09
2022-10-13T19:07:28.114Z,95029.72
2022-10-13T19:09:30.289Z,95035.00
2022-10-13T19:11:32.574Z,95033.19
2022-10-13T19:13:34.289Z,95034.00
2022-10-13T19:15:35.867Z,95032.19
2022-10-13T19:17:37.628Z,95029.56
2022-10-13T19:19:40.817Z,95030.53
2022-10-13T19:21:42.603Z,95026.44
2022-10-13T19:23:44.302Z,95019.72
2022-10-13T19:25:45.889Z,95029.25
2022-10-13T19:27:47.527Z,95021.34
2022-10-13T19:29:52.308Z,95026.19
2022-10-13T19:31:53.948Z,95030.19
2022-10-13T19:33:55.933Z,95014.34
2022-10-13T19:35:57.754Z,95019.00
2022-10-13T19:37:59.388Z,95019.00
2022-10-13T19:40:00.953Z,95016.69
2022-10-13T19:42:02.802Z,95016.06
2022-10-13T19:44:04.535Z,95016.41
2022-10-13T19:46:07.176Z,95009.59
2022-10-13T19:48:08.885Z,95014.03
2022-10-13T19:50:10.805Z,95018.16
2022-10-13T19:52:12.362Z,95019.78
2022-10-13T19:54:14.696Z,95018.16
2022-10-13T19:56:27.881Z,95022.78
2022-10-13T19:58:30.253Z,95021.31
2022-10-13T20:00:32.022Z,95017.03
2022-10-13T20:02:34.154Z,95020.22
2022-10-13T20:04:35.826Z,95018.94
2022-10-13T20:06:37.843Z,95020.13
2022-10-13T20:08:39.697Z,95020.78
2022-10-13T20:10:42.929Z,95017.28
2022-10-13T20:12:44.556Z,95016.84
2022-10-13T20:14:46.360Z,95019.84
2022-10-13T20:16:48.614Z,95021.38
2022-10-13T20:18:55.631Z,95021.94
2022-10-13T20:20:57.710Z,95025.22
2022-10-13T20:22:59.304Z,95019.56
2022-10-13T20:25:00.910Z,95022.38
2022-10-13T20:27:02.961Z,95019.38
2022-10-13T20:29:04.804Z,95016.38
2022-10-13T20:31:06.505Z,95019.66
2022-10-13T20:33:10.253Z,95015.41
2022-10-13T20:35:11.781Z,95014.13
2022-10-13T20:37:13.402Z,95018.28
2022-10-13T20:39:15.213Z,95019.28
2022-10-13T20:41:24.924Z,95009.44
2022-10-13T20:43:26.519Z,95006.81
2022-10-13T20:45:28.215Z,95009.44
2022-10-13T20:47:29.975Z,95006.44
2022-10-13T20:49:31.633Z,95008.44
2022-10-13T20:51:33.241Z,95006.16
2022-10-13T20:53:36.264Z,95003.06
2022-10-13T20:55:41.742Z,94998.88
2022-10-13T20:57:43.842Z,95002.75
2022-10-13T20:59:45.441Z,95003.72
2022-10-13T21:01:47.023Z,95008.19
2022-10-13T21:03:53.425Z,95003.56
2022-10-13T21:05:55.419Z,94999.94
2022-10-13T21:07:57.266Z,94997.09
2022-10-13T21:09:58.925Z,95002.00
2022-10-13T21:12:00.714Z,95003.28
2022-10-13T21:14:06.858Z,94998.66
2022-10-13T21:16:10.657Z,94998.28
2022-10-13T21:18:12.490Z,94997.09
2022-10-13T21:20:14.266Z,94996.81
2022-10-13T21:22:15.866Z,94988.91
2022-10-13T21:24:17.452Z,94988.09
2022-10-13T21:26:21.901Z,94986.50
2022-10-13T21:28:23.893Z,94984.78
2022-10-13T21:30:25.643Z,94979.84
2022-10-13T21:32:30.001Z,94982.47
2022-10-13T21:34:31.698Z,94985.59
2022-10-13T21:36:33.906Z,94981.44
2022-10-13T21:38:35.990Z,94969.72
2022-10-13T21:40:38.154Z,94972.97
2022-10-13T21:42:39.967Z,94964.06
2022-10-13T21:44:41.874Z,94967.34
2022-10-13T21:46:43.536Z,94967.19
2022-10-13T21:48:46.360Z,94967.00
2022-10-13T21:50:48.103Z,94956.63
2022-10-13T21:52:49.664Z,94962.44
2022-10-13T21:54:51.553Z,94956.34
2022-10-13T21:56:53.243Z,94954.69
2022-10-13T21:58:56.061Z,94958.16
2022-10-13T22:01:00.477Z,94952.69
2022-10-13T22:03:02.216Z,94954.69
2022-10-13T22:05:04.176Z,94951.78
2022-10-13T22:07:06.214Z,94948.94
2022-10-13T22:09:09.008Z,94946.78
2022-10-13T22:11:12.633Z,94946.13
2022-10-13T22:13:14.243Z,94947.97
2022-10-13T22:15:16.019Z,94937.16
2022-10-13T22:17:17.839Z,94944.84
2022-10-13T22:19:22.641Z,94943.22
2022-10-13T22:21:27.349Z,94956.41
2022-10-13T22:23:29.469Z,94963.03
2022-10-13T22:25:31.088Z,94956.41
2022-10-13T22:27:32.724Z,94958.03
2022-10-13T22:29:34.426Z,94959.75
2022-10-13T22:31:36.222Z,94958.94
2022-10-13T22:33:39.634Z,94955.97
2022-10-13T22:35:41.478Z,94950.69
2022-10-13T22:37:43.260Z,94950.84
2022-10-13T22:39:44.989Z,94950.94
2022-10-13T22:41:46.663Z,94943.34
2022-10-13T22:43:56.113Z,94948.59
2022-10-13T22:45:57.718Z,94947.44
2022-10-13T22:47:59.379Z,94945.81
2022-10-13T22:50:01.029Z,94941.50
2022-10-13T22:52:02.608Z,94951.41
2022-10-13T22:54:04.717Z,94942.53
2022-10-13T22:56:12.072Z,94944.16
2022-10-13T22:58:13.765Z,94940.31
2022-10-13T23:00:16.141Z,94943.81
2022-10-13T23:02:17.827Z,94937.69
2022-10-13T23:04:19.461Z,94952.00
2022-10-13T23:06:23.620Z,94947.53
2022-10-13T23:08:25.785Z,94949.34
2022-10-13T23:10:27.427Z,94942.78
2022-10-13T23:12:29.088Z,94945.06
2022-10-13T23:14:30.698Z,94938.97
2022-10-13T23:16:32.384Z,94943.25
2022-10-13T23:18:34.460Z,94934.06
2022-10-13T23:20:39.983Z,94938.88
2022-10-13T23:22:41.647Z,94937.41
2022-10-13T23:24:43.265Z,94934.69
2022-10-13T23:26:45.049Z,94941.00
2022-10-13T23:28:46.730Z,94942.34
2022-10-13T23:30:48.375Z,94942.03
2022-10-13T23:32:50.035Z,94939.41
2022-10-13T23:34:51.640Z,94936.13
2022-10-13T23:36:53.329Z,94941.28
2022-10-13T23:38:59.346Z,94941.28
2022-10-13T23:41:08.911Z,94945.75
2022-10-13T23:43:10.529Z,94949.34
2022-10-13T23:45:12.158Z,94942.50
2022-10-13T23:47:14.029Z,94945.50
2022-10-13T23:49:15.736Z,94945.31
2022-10-13T23:51:23.217Z,94948.47
2022-10-13T23:53:25.084Z,94945.56
2022-10-13T23:55:26.900Z,94949.50
2022-10-13T23:57:29.994Z,94950.00
2022-10-13T23:59:31.720Z,94946.22
